Wellborn, Florida
Current Conditions -  °F | °C
As of 12:55 PM on Saturday 25 Oct 2014 (Local Time) from K24J Reporting Station
Clear Clear  
Wind Chill: 77°   Ceiling: Unl
Heat Index: 78°   Visibility: 1.7mi
Dew Point: 50°   Wind: 7mph
Humidity: 39%   Direction: 350°N
Pressure: 30.04"   Gusts: NA
Location:  30.23°N, 82.82°W
Report Text: K24J 251655Z AUTO 35006KT 1 3/4SM CLR 25/10 A3004 RMK AO1
Loading
Personal Weather Stations






























Interactive Weather Map
Tropical Storm Tracking
New forecast layout! Learn more

10-Day Weather Forecast

Advertisements
Track Severe Weather on mobile